createdAt,value
2019-02-06T00:00:59.895Z,0.00
2019-02-06T00:01:59.867Z,0.00
2019-02-06T00:02:59.820Z,0.00
2019-02-06T00:03:59.791Z,0.00
2019-02-06T00:04:59.747Z,0.00
2019-02-06T00:05:59.710Z,0.00
2019-02-06T00:06:59.670Z,0.00
2019-02-06T00:07:59.636Z,0.00
2019-02-06T00:08:59.586Z,0.00
2019-02-06T00:09:59.555Z,0.00
2019-02-06T00:10:59.512Z,0.00
2019-02-06T00:11:59.486Z,0.00
2019-02-06T00:12:59.472Z,0.00
2019-02-06T00:13:59.416Z,0.00
2019-02-06T00:14:59.379Z,0.00
2019-02-06T00:15:59.345Z,0.00
2019-02-06T00:16:59.302Z,0.00
2019-02-06T00:17:59.238Z,0.00
2019-02-06T00:18:59.206Z,0.00
2019-02-06T00:19:59.153Z,0.00
2019-02-06T00:20:59.116Z,0.00
2019-02-06T00:21:59.079Z,0.00
2019-02-06T00:22:59.048Z,0.00
2019-02-06T00:23:59.006Z,0.00
2019-02-06T00:24:58.966Z,0.00
2019-02-06T00:25:58.928Z,0.00
2019-02-06T00:26:58.882Z,0.00
2019-02-06T00:27:58.855Z,0.00
2019-02-06T00:28:58.802Z,0.00
2019-02-06T00:29:58.763Z,0.00
2019-02-06T00:30:58.726Z,0.00
2019-02-06T00:31:58.693Z,0.00
2019-02-06T00:32:58.653Z,0.00
2019-02-06T00:33:58.611Z,0.00
2019-02-06T00:34:58.566Z,0.00
2019-02-06T00:35:58.529Z,0.00
2019-02-06T00:36:58.492Z,0.00
2019-02-06T00:37:58.452Z,0.00
2019-02-06T00:38:58.418Z,0.00
2019-02-06T00:39:58.387Z,0.00
2019-02-06T00:40:58.347Z,0.00
2019-02-06T00:41:58.293Z,0.00
2019-02-06T00:42:58.259Z,0.00
2019-02-06T00:43:58.214Z,0.00
2019-02-06T00:44:58.183Z,0.00
2019-02-06T00:45:58.144Z,0.00
2019-02-06T00:46:58.104Z,0.00
2019-02-06T00:47:58.062Z,0.00
2019-02-06T00:48:58.025Z,0.00
2019-02-06T00:49:57.984Z,0.00
2019-02-06T00:50:57.943Z,0.00
2019-02-06T00:51:57.908Z,0.00
2019-02-06T00:52:57.862Z,0.00
2019-02-06T00:53:57.829Z,0.00
2019-02-06T00:54:57.779Z,0.00
2019-02-06T00:55:57.759Z,0.00
2019-02-06T00:56:57.705Z,0.00
2019-02-06T00:57:57.663Z,0.00
2019-02-06T00:58:57.624Z,0.00
2019-02-06T00:59:58.548Z,0.00
2019-02-06T01:00:57.543Z,0.00
2019-02-06T01:01:57.514Z,0.00
2019-02-06T01:02:57.474Z,0.00
2019-02-06T01:03:57.434Z,0.00
2019-02-06T01:04:57.392Z,0.00
2019-02-06T01:05:57.363Z,0.00
2019-02-06T01:06:57.314Z,0.00
2019-02-06T01:07:57.292Z,0.00
2019-02-06T01:08:57.234Z,0.00
2019-02-06T01:09:57.193Z,0.00
2019-02-06T01:10:57.160Z,0.00
2019-02-06T01:11:57.115Z,0.00
2019-02-06T01:12:57.072Z,0.00
2019-02-06T01:13:57.041Z,0.00
2019-02-06T01:14:57.002Z,0.00
2019-02-06T01:15:56.970Z,0.00
2019-02-06T01:16:56.914Z,0.00
2019-02-06T01:17:56.879Z,0.00
2019-02-06T01:18:56.844Z,0.00
2019-02-06T01:19:56.844Z,0.00
2019-02-06T01:20:56.774Z,0.00
2019-02-06T01:21:56.741Z,0.00
2019-02-06T01:22:56.695Z,0.00
2019-02-06T01:23:56.648Z,0.00
2019-02-06T01:24:56.611Z,0.00
2019-02-06T01:25:56.575Z,0.00
2019-02-06T01:26:56.526Z,0.00
2019-02-06T01:27:56.489Z,0.00
2019-02-06T01:28:56.454Z,0.00
2019-02-06T01:29:56.407Z,0.00
2019-02-06T01:30:56.364Z,0.00
2019-02-06T01:31:56.336Z,0.00
2019-02-06T01:32:56.291Z,0.00
2019-02-06T01:33:56.252Z,0.00
2019-02-06T01:34:56.217Z,0.00
2019-02-06T01:35:56.172Z,0.00
2019-02-06T01:36:56.147Z,0.00
2019-02-06T01:37:56.094Z,0.00
2019-02-06T01:38:56.064Z,0.00
2019-02-06T01:39:56.019Z,0.00
2019-02-06T01:40:55.977Z,0.00
2019-02-06T01:41:55.934Z,0.00
2019-02-06T01:42:55.907Z,0.00
2019-02-06T01:43:55.867Z,0.00
2019-02-06T01:44:55.831Z,0.00
2019-02-06T01:45:55.777Z,0.00
2019-02-06T01:46:55.743Z,0.00
2019-02-06T01:47:55.715Z,0.00
2019-02-06T01:48:55.668Z,0.00
2019-02-06T01:49:55.651Z,0.00
2019-02-06T01:50:55.590Z,0.00
2019-02-06T01:51:55.545Z,0.00
2019-02-06T01:52:55.504Z,0.00
2019-02-06T01:53:55.470Z,0.00
2019-02-06T01:54:55.432Z,0.00
2019-02-06T01:55:55.386Z,0.00
2019-02-06T01:56:55.348Z,0.00
2019-02-06T01:57:55.312Z,0.00
2019-02-06T01:58:55.275Z,0.00
2019-02-06T01:59:55.238Z,0.00
2019-02-06T02:00:55.193Z,0.00
2019-02-06T02:01:55.155Z,0.00
2019-02-06T02:02:55.115Z,0.00
2019-02-06T02:03:55.076Z,0.00
2019-02-06T02:04:55.041Z,0.00
2019-02-06T02:06:02.370Z,0.00
2019-02-06T02:06:54.956Z,0.00
2019-02-06T02:07:54.926Z,0.00
2019-02-06T02:08:54.901Z,0.00
2019-02-06T02:09:54.837Z,0.00
2019-02-06T02:10:54.798Z,0.00
2019-02-06T02:11:54.768Z,0.00
2019-02-06T02:12:54.724Z,0.00
2019-02-06T02:13:54.677Z,0.00
2019-02-06T02:14:54.641Z,0.00
2019-02-06T02:15:54.603Z,0.00
2019-02-06T02:16:54.568Z,0.00
2019-02-06T02:17:54.534Z,0.00
2019-02-06T02:18:54.489Z,0.00
2019-02-06T02:19:54.445Z,0.00
2019-02-06T02:20:54.414Z,0.00
2019-02-06T02:21:54.369Z,0.00
2019-02-06T02:22:54.329Z,0.00
2019-02-06T02:23:54.293Z,0.00
2019-02-06T02:24:54.253Z,0.00
2019-02-06T02:25:54.209Z,0.00
2019-02-06T02:26:54.165Z,0.00
2019-02-06T02:27:54.134Z,0.00
2019-02-06T02:28:54.093Z,0.00
2019-02-06T02:29:54.074Z,0.00
2019-02-06T02:30:54.013Z,0.00
2019-02-06T02:31:53.989Z,0.00
2019-02-06T02:32:53.941Z,0.00
2019-02-06T02:33:53.908Z,0.00
2019-02-06T02:34:53.858Z,0.00
2019-02-06T02:35:53.825Z,0.00
2019-02-06T02:36:53.786Z,0.00
2019-02-06T02:37:53.752Z,0.00
2019-02-06T02:38:53.703Z,0.00
2019-02-06T02:39:53.663Z,0.00
2019-02-06T02:40:53.619Z,0.00
2019-02-06T02:41:53.580Z,0.00
2019-02-06T02:42:53.539Z,0.00
2019-02-06T02:43:53.495Z,0.00
2019-02-06T02:44:53.468Z,0.00
2019-02-06T02:45:53.434Z,0.00
2019-02-06T02:46:53.389Z,0.00
2019-02-06T02:47:53.346Z,0.00
2019-02-06T02:48:53.306Z,0.00
2019-02-06T02:49:53.397Z,0.00
2019-02-06T02:50:53.235Z,0.00
2019-02-06T02:51:53.193Z,0.00
2019-02-06T02:52:53.162Z,0.00
2019-02-06T02:53:53.132Z,0.00
2019-02-06T02:54:53.075Z,0.00
2019-02-06T02:55:53.031Z,0.00
2019-02-06T02:56:52.996Z,0.00
2019-02-06T02:57:52.960Z,0.00
2019-02-06T02:58:52.921Z,0.00
2019-02-06T02:59:52.876Z,0.00
2019-02-06T03:00:52.836Z,0.00
2019-02-06T03:01:52.847Z,0.00
2019-02-06T03:02:52.764Z,0.00
2019-02-06T03:03:52.716Z,0.00
2019-02-06T03:04:52.690Z,0.00
2019-02-06T03:05:52.639Z,0.00
2019-02-06T03:06:52.603Z,0.00
2019-02-06T03:07:52.562Z,0.00
2019-02-06T03:08:52.531Z,0.00
2019-02-06T03:09:52.493Z,0.00
2019-02-06T03:10:52.451Z,0.00
2019-02-06T03:11:52.411Z,0.00
2019-02-06T03:12:52.367Z,0.00
2019-02-06T03:13:52.331Z,0.00
2019-02-06T03:14:52.284Z,0.00
2019-02-06T03:15:52.255Z,0.00
2019-02-06T03:16:52.215Z,0.00
2019-02-06T03:17:52.264Z,0.00
2019-02-06T03:18:52.221Z,0.00
2019-02-06T03:19:52.090Z,0.00
2019-02-06T03:20:52.049Z,0.00
2019-02-06T03:21:52.012Z,0.00
2019-02-06T03:22:51.977Z,0.00
2019-02-06T03:23:51.942Z,0.00
2019-02-06T03:24:51.892Z,0.00
2019-02-06T03:25:51.861Z,0.00
2019-02-06T03:26:51.817Z,0.00
2019-02-06T03:27:51.777Z,0.00
2019-02-06T03:28:51.735Z,0.00
2019-02-06T03:29:51.701Z,0.00
2019-02-06T03:30:51.664Z,0.00
2019-02-06T03:31:51.634Z,0.00
2019-02-06T03:32:51.595Z,0.00
2019-02-06T03:33:51.549Z,0.00
2019-02-06T03:34:51.511Z,0.00
2019-02-06T03:35:51.457Z,0.00
2019-02-06T03:36:51.427Z,0.00
2019-02-06T03:37:51.381Z,0.00
2019-02-06T03:38:51.347Z,0.00
2019-02-06T03:39:51.306Z,0.00
2019-02-06T03:40:51.279Z,0.00
2019-02-06T03:41:51.227Z,0.00
2019-02-06T03:42:51.197Z,0.00
2019-02-06T03:43:51.152Z,0.00
2019-02-06T03:44:51.113Z,0.00
2019-02-06T03:45:51.063Z,0.00
2019-02-06T03:46:51.030Z,0.00
2019-02-06T03:47:50.987Z,0.00
2019-02-06T03:48:50.953Z,0.00
2019-02-06T03:49:50.918Z,0.00
2019-02-06T03:50:50.875Z,0.00
2019-02-06T03:51:50.833Z,0.00
2019-02-06T03:52:50.798Z,0.00
2019-02-06T03:53:50.785Z,0.00
2019-02-06T03:54:50.718Z,0.00
2019-02-06T03:55:50.684Z,0.00
2019-02-06T03:56:50.644Z,0.00
2019-02-06T03:57:50.595Z,0.00
2019-02-06T03:58:50.552Z,0.00
2019-02-06T03:59:50.528Z,0.00
2019-02-06T04:00:50.492Z,0.00
2019-02-06T04:01:50.446Z,0.00
2019-02-06T04:02:50.406Z,0.00
2019-02-06T04:03:50.366Z,0.00
2019-02-06T04:04:50.339Z,0.00
2019-02-06T04:05:50.309Z,0.00
2019-02-06T04:06:55.158Z,0.00
2019-02-06T04:07:50.209Z,0.00
2019-02-06T04:08:50.187Z,0.00
2019-02-06T04:09:50.127Z,0.00
2019-02-06T04:10:50.097Z,0.00
2019-02-06T04:11:50.049Z,0.00
2019-02-06T04:12:50.017Z,0.00
2019-02-06T04:13:49.978Z,0.00
2019-02-06T04:14:49.935Z,0.00
2019-02-06T04:15:49.904Z,0.00
2019-02-06T04:16:49.856Z,0.00
2019-02-06T04:17:49.813Z,0.00
2019-02-06T04:18:49.784Z,0.00
2019-02-06T04:19:49.749Z,0.00
2019-02-06T04:20:49.709Z,0.00
2019-02-06T04:21:49.662Z,0.00
2019-02-06T04:22:49.619Z,0.00
2019-02-06T04:23:49.578Z,0.00
2019-02-06T04:24:51.692Z,0.00
2019-02-06T04:25:49.508Z,0.00
2019-02-06T04:26:49.464Z,0.00
2019-02-06T04:27:49.424Z,0.00
2019-02-06T04:28:49.393Z,0.00
2019-02-06T04:29:49.341Z,0.00
2019-02-06T04:30:49.311Z,0.00
2019-02-06T04:31:49.270Z,0.00
2019-02-06T04:32:49.241Z,0.00
2019-02-06T04:33:49.193Z,0.00
2019-02-06T04:34:49.154Z,0.00
2019-02-06T04:35:49.108Z,0.00
2019-02-06T04:36:49.061Z,0.00
2019-02-06T04:37:49.033Z,0.00
2019-02-06T04:38:48.990Z,0.00
2019-02-06T04:39:48.956Z,0.00
2019-02-06T04:40:48.907Z,0.00
2019-02-06T04:41:48.877Z,0.00
2019-02-06T04:42:48.845Z,0.00
2019-02-06T04:43:48.808Z,0.00
2019-02-06T04:44:48.761Z,0.00
2019-02-06T04:45:48.714Z,0.00
2019-02-06T04:46:48.678Z,0.00
2019-02-06T04:47:48.642Z,0.00
2019-02-06T04:48:48.605Z,0.00
2019-02-06T04:49:48.559Z,0.00
2019-02-06T04:50:48.532Z,0.00
2019-02-06T04:51:48.489Z,0.00
2019-02-06T04:52:48.442Z,0.00
2019-02-06T04:53:48.401Z,0.00
2019-02-06T04:54:48.362Z,0.00
2019-02-06T04:55:48.329Z,0.00
2019-02-06T04:56:48.294Z,0.00
2019-02-06T04:57:48.247Z,0.00
2019-02-06T04:58:48.218Z,0.00
2019-02-06T04:59:48.181Z,0.00
2019-02-06T05:00:48.129Z,0.00
2019-02-06T05:01:48.089Z,0.00
2019-02-06T05:02:48.045Z,0.00
2019-02-06T05:03:48.011Z,0.00
2019-02-06T05:04:47.975Z,0.00
2019-02-06T05:05:47.931Z,0.00
2019-02-06T05:06:47.894Z,0.00
2019-02-06T05:07:47.860Z,0.00
2019-02-06T05:08:47.815Z,0.00
2019-02-06T05:09:47.779Z,0.00
2019-02-06T05:10:47.734Z,0.00
2019-02-06T05:11:47.851Z,0.00
2019-02-06T05:12:47.658Z,0.00
2019-02-06T05:13:47.618Z,0.00
2019-02-06T05:14:47.576Z,0.00
2019-02-06T05:15:47.552Z,0.00
2019-02-06T05:16:47.497Z,0.00
2019-02-06T05:17:47.467Z,0.00
2019-02-06T05:18:47.421Z,0.00
2019-02-06T05:19:47.387Z,0.00
2019-02-06T05:20:47.337Z,0.00
2019-02-06T05:21:47.303Z,0.00
2019-02-06T05:22:47.273Z,0.00
2019-02-06T05:23:47.223Z,0.00
2019-02-06T05:24:47.189Z,0.00
2019-02-06T05:25:47.148Z,0.00
2019-02-06T05:26:47.105Z,0.00
2019-02-06T05:27:47.062Z,0.00
2019-02-06T05:28:47.018Z,0.00
2019-02-06T05:29:46.996Z,0.00
2019-02-06T05:30:46.954Z,0.00
2019-02-06T05:31:46.912Z,0.00
2019-02-06T05:32:46.870Z,0.00
2019-02-06T05:33:46.828Z,0.00
2019-02-06T05:34:46.788Z,0.00
2019-02-06T05:35:46.751Z,0.00
2019-02-06T05:36:46.711Z,0.00
2019-02-06T05:37:46.675Z,0.00
2019-02-06T05:38:46.637Z,0.00
2019-02-06T05:39:46.598Z,0.00
2019-02-06T05:40:46.557Z,0.00
2019-02-06T05:41:46.518Z,0.00
2019-02-06T05:42:46.485Z,0.00
2019-02-06T05:43:46.457Z,0.00
2019-02-06T05:44:46.410Z,0.00
2019-02-06T05:45:46.384Z,0.00
2019-02-06T05:46:46.322Z,0.00
2019-02-06T05:47:46.273Z,0.00
2019-02-06T05:48:49.314Z,0.00
2019-02-06T05:49:46.202Z,0.00
2019-02-06T05:50:46.170Z,0.00
2019-02-06T05:51:46.126Z,0.00
2019-02-06T05:52:46.092Z,0.00
2019-02-06T05:53:46.053Z,0.00
2019-02-06T05:54:46.009Z,0.00
2019-02-06T05:55:45.963Z,0.00
2019-02-06T05:56:45.938Z,0.00
2019-02-06T05:57:45.888Z,0.00
2019-02-06T05:58:45.851Z,0.00
2019-02-06T05:59:45.809Z,0.00
2019-02-06T06:00:45.778Z,0.00
2019-02-06T06:01:45.729Z,0.00
2019-02-06T06:02:45.693Z,0.00
2019-02-06T06:03:45.649Z,0.00
2019-02-06T06:04:45.607Z,0.00
2019-02-06T06:05:45.573Z,0.00
2019-02-06T06:06:45.636Z,0.00
2019-02-06T06:07:45.776Z,0.00
2019-02-06T06:08:45.458Z,0.00
2019-02-06T06:09:45.409Z,0.00
2019-02-06T06:10:45.381Z,0.00
2019-02-06T06:11:45.343Z,0.00
2019-02-06T06:12:45.295Z,0.00
2019-02-06T06:13:45.253Z,0.00
2019-02-06T06:14:45.231Z,0.00
2019-02-06T06:15:45.185Z,0.00
2019-02-06T06:16:45.147Z,0.00
2019-02-06T06:17:45.104Z,0.00
2019-02-06T06:18:45.073Z,0.00
2019-02-06T06:19:45.030Z,0.00
2019-02-06T06:20:44.978Z,0.00
2019-02-06T06:21:44.944Z,0.00
2019-02-06T06:22:44.914Z,0.00
2019-02-06T06:23:44.864Z,0.00
2019-02-06T06:24:44.828Z,0.00
2019-02-06T06:25:44.783Z,0.00
2019-02-06T06:26:44.755Z,0.00
2019-02-06T06:27:44.711Z,0.00
2019-02-06T06:28:44.667Z,0.00
2019-02-06T06:29:44.633Z,0.00
2019-02-06T06:30:47.218Z,0.00
2019-02-06T06:31:44.551Z,0.00
2019-02-06T06:32:44.524Z,0.00
2019-02-06T06:33:44.483Z,0.00
2019-02-06T06:34:44.435Z,0.00
2019-02-06T06:35:44.400Z,0.00
2019-02-06T06:36:44.361Z,0.00
2019-02-06T06:37:57.089Z,0.00
2019-02-06T06:38:44.281Z,0.00
2019-02-06T06:39:44.246Z,0.00
2019-02-06T06:40:44.210Z,0.00
2019-02-06T06:41:44.164Z,0.00
2019-02-06T06:42:44.115Z,0.00
2019-02-06T06:43:44.085Z,0.00
2019-02-06T06:44:44.045Z,0.00
2019-02-06T06:45:44.016Z,0.00
2019-02-06T06:46:43.964Z,0.00
2019-02-06T06:47:43.926Z,0.00
2019-02-06T06:48:43.881Z,0.00
2019-02-06T06:49:43.842Z,0.00
2019-02-06T06:50:43.804Z,0.00
2019-02-06T06:51:43.762Z,0.00
2019-02-06T06:52:43.745Z,0.00
2019-02-06T06:53:43.689Z,0.00
2019-02-06T06:54:43.652Z,0.00
2019-02-06T06:55:43.610Z,0.00
2019-02-06T06:56:43.581Z,0.00
2019-02-06T06:57:43.536Z,0.00
2019-02-06T06:58:43.492Z,0.00
2019-02-06T06:59:43.456Z,0.00
2019-02-06T07:00:43.421Z,0.00
2019-02-06T07:01:43.377Z,0.00
2019-02-06T07:02:43.341Z,0.00
2019-02-06T07:03:43.307Z,0.00
2019-02-06T07:04:43.265Z,0.00
2019-02-06T07:05:43.227Z,0.00
2019-02-06T07:06:46.287Z,0.00
2019-02-06T07:07:43.137Z,0.00
2019-02-06T07:08:43.102Z,0.00
2019-02-06T07:09:43.057Z,0.00
2019-02-06T07:10:43.025Z,0.00
2019-02-06T07:11:42.995Z,0.00
2019-02-06T07:12:42.945Z,0.00
2019-02-06T07:13:42.912Z,0.00
2019-02-06T07:14:42.868Z,0.00
2019-02-06T07:15:42.823Z,0.00
2019-02-06T07:16:42.793Z,0.00
2019-02-06T07:17:42.746Z,0.00
2019-02-06T07:18:42.711Z,0.00
2019-02-06T07:19:42.662Z,5.63
2019-02-06T07:20:42.636Z,5.63
2019-02-06T07:21:42.596Z,5.63
2019-02-06T07:22:42.551Z,5.63
2019-02-06T07:23:42.523Z,5.63
2019-02-06T07:24:42.480Z,5.63
2019-02-06T07:25:42.437Z,5.63
2019-02-06T07:26:42.393Z,5.63
2019-02-06T07:27:42.363Z,5.63
2019-02-06T07:28:42.314Z,5.63
2019-02-06T07:29:42.284Z,5.63
2019-02-06T07:30:42.238Z,5.63
2019-02-06T07:31:42.203Z,5.63
2019-02-06T07:32:42.154Z,5.63
2019-02-06T07:33:42.120Z,11.25
2019-02-06T07:34:42.087Z,11.25
2019-02-06T07:35:42.054Z,11.25
2019-02-06T07:36:42.000Z,11.25
2019-02-06T07:37:41.969Z,11.25
2019-02-06T07:38:41.929Z,11.25
2019-02-06T07:39:41.891Z,11.25
2019-02-06T07:40:41.853Z,11.25
2019-02-06T07:41:41.813Z,11.25
2019-02-06T07:42:41.778Z,11.25
2019-02-06T07:43:41.744Z,11.25
2019-02-06T07:44:41.705Z,11.25
2019-02-06T07:45:41.658Z,11.25
2019-02-06T07:46:41.618Z,11.25
2019-02-06T07:47:41.584Z,11.25
2019-02-06T07:48:41.543Z,11.25
2019-02-06T07:49:41.533Z,11.25
2019-02-06T07:50:41.460Z,16.88
2019-02-06T07:51:41.417Z,16.88
2019-02-06T07:52:41.389Z,16.88
2019-02-06T07:53:41.333Z,16.88
2019-02-06T07:54:41.303Z,16.88
2019-02-06T07:55:41.268Z,16.88
2019-02-06T07:56:41.233Z,16.88
2019-02-06T07:57:41.200Z,16.88
2019-02-06T07:58:41.149Z,16.88
2019-02-06T07:59:41.113Z,16.88
2019-02-06T08:00:41.074Z,16.88
2019-02-06T08:01:41.032Z,16.88
2019-02-06T08:02:41.010Z,16.88
2019-02-06T08:03:40.954Z,16.88
2019-02-06T08:04:41.529Z,16.88
2019-02-06T08:05:40.883Z,16.88
2019-02-06T08:06:40.838Z,16.88
2019-02-06T08:07:40.811Z,16.88
2019-02-06T08:08:40.760Z,16.88
2019-02-06T08:09:40.720Z,22.50
2019-02-06T08:10:40.688Z,22.50
2019-02-06T08:11:40.650Z,22.50
2019-02-06T08:12:40.613Z,22.50
2019-02-06T08:13:40.575Z,22.50
2019-02-06T08:14:40.533Z,22.50
2019-02-06T08:15:40.488Z,22.50
2019-02-06T08:16:40.469Z,22.50
2019-02-06T08:17:40.419Z,22.50
2019-02-06T08:18:40.371Z,22.50
2019-02-06T08:19:40.335Z,22.50
2019-02-06T08:20:40.309Z,22.50
2019-02-06T08:21:40.269Z,28.13
2019-02-06T08:22:40.219Z,28.13
2019-02-06T08:23:40.187Z,28.13
2019-02-06T08:24:40.140Z,28.13
2019-02-06T08:25:40.108Z,28.13
2019-02-06T08:26:40.071Z,28.13
2019-02-06T08:27:40.036Z,28.13
2019-02-06T08:28:40.000Z,28.13
2019-02-06T08:29:39.939Z,28.13
2019-02-06T08:30:39.914Z,28.13
2019-02-06T08:31:39.874Z,28.13
2019-02-06T08:32:39.840Z,28.13
2019-02-06T08:33:39.805Z,28.13
2019-02-06T08:34:39.754Z,33.75
2019-02-06T08:35:39.715Z,33.75
2019-02-06T08:36:39.689Z,33.75
2019-02-06T08:37:39.663Z,33.75
2019-02-06T08:38:47.351Z,33.75
2019-02-06T08:39:39.575Z,33.75
2019-02-06T08:40:39.526Z,33.75
2019-02-06T08:41:39.494Z,33.75
2019-02-06T08:42:39.464Z,33.75
2019-02-06T08:43:39.539Z,33.75
2019-02-06T08:44:39.385Z,33.75
2019-02-06T08:45:39.346Z,39.38
2019-02-06T08:46:39.305Z,39.38
2019-02-06T08:47:39.262Z,39.38
2019-02-06T08:48:39.325Z,39.38
2019-02-06T08:49:39.203Z,39.38
2019-02-06T08:50:39.156Z,39.38
2019-02-06T08:51:39.112Z,39.38
2019-02-06T08:52:39.072Z,39.38
2019-02-06T08:53:39.036Z,39.38
2019-02-06T08:54:38.998Z,39.38
2019-02-06T08:55:38.959Z,39.38
2019-02-06T08:56:38.920Z,45.00
2019-02-06T08:57:38.882Z,45.00
2019-02-06T08:58:38.861Z,45.00
2019-02-06T08:59:38.810Z,45.00
2019-02-06T09:00:38.768Z,45.00
2019-02-06T09:01:38.741Z,45.00
2019-02-06T09:02:38.694Z,45.00
2019-02-06T09:03:38.668Z,45.00
2019-02-06T09:04:38.612Z,45.00
2019-02-06T09:05:38.589Z,45.00
2019-02-06T09:06:38.548Z,50.63
2019-02-06T09:07:38.507Z,50.63
2019-02-06T09:08:38.468Z,50.63
2019-02-06T09:09:38.427Z,50.63
2019-02-06T09:10:38.396Z,50.63
2019-02-06T09:11:38.353Z,50.63
2019-02-06T09:12:38.335Z,50.63
2019-02-06T09:13:38.286Z,50.63
2019-02-06T09:14:38.242Z,56.25
2019-02-06T09:15:38.203Z,56.25
2019-02-06T09:16:38.163Z,56.25
2019-02-06T09:17:38.128Z,56.25
2019-02-06T09:18:38.108Z,56.25
2019-02-06T09:19:38.057Z,56.25
2019-02-06T09:20:38.023Z,61.88
2019-02-06T09:21:37.973Z,61.88
2019-02-06T09:22:37.952Z,61.88
2019-02-06T09:23:37.907Z,61.88
2019-02-06T09:24:37.869Z,67.50
2019-02-06T09:25:37.829Z,67.50
2019-02-06T09:26:37.797Z,67.50
2019-02-06T09:27:37.770Z,67.50
2019-02-06T09:28:37.719Z,73.13
2019-02-06T09:29:37.694Z,73.13
2019-02-06T09:30:37.649Z,73.13
2019-02-06T09:31:37.607Z,78.75
2019-02-06T09:32:37.577Z,78.75
2019-02-06T09:33:37.562Z,78.75
2019-02-06T09:34:37.607Z,84.38
2019-02-06T09:35:37.463Z,84.38
2019-02-06T09:36:37.429Z,84.38
2019-02-06T09:37:37.383Z,84.38
2019-02-06T09:38:37.347Z,84.38
2019-02-06T09:39:37.309Z,90.00
2019-02-06T09:40:37.278Z,90.00
2019-02-06T09:41:37.239Z,95.63
2019-02-06T09:42:37.203Z,101.25
2019-02-06T09:43:37.164Z,101.25
2019-02-06T09:44:37.130Z,106.88
2019-02-06T09:45:37.095Z,112.50
2019-02-06T09:46:37.051Z,112.50
2019-02-06T09:47:37.025Z,118.13
2019-02-06T09:48:36.987Z,118.13
2019-02-06T09:49:36.944Z,123.75
2019-02-06T09:50:36.917Z,129.38
2019-02-06T09:51:36.868Z,146.25
2019-02-06T09:52:36.838Z,275.63
2019-02-06T09:53:36.794Z,472.50
2019-02-06T09:54:36.765Z,528.75
2019-02-06T09:55:36.739Z,461.25
2019-02-06T09:56:36.693Z,416.25
2019-02-06T09:57:36.670Z,376.88
2019-02-06T09:58:36.631Z,253.13
2019-02-06T09:59:36.626Z,202.50
2019-02-06T10:00:36.567Z,174.38
2019-02-06T10:01:36.516Z,163.13
2019-02-06T10:02:36.484Z,180.00
2019-02-06T10:03:36.446Z,174.38
2019-02-06T10:04:36.419Z,151.88
2019-02-06T10:05:36.382Z,112.50
2019-02-06T10:06:36.345Z,123.75
2019-02-06T10:07:36.318Z,157.50
2019-02-06T10:08:36.273Z,163.13
2019-02-06T10:09:36.249Z,135.00
2019-02-06T10:10:36.212Z,118.13
2019-02-06T10:11:36.176Z,106.88
2019-02-06T10:12:36.149Z,106.88
2019-02-06T10:13:36.105Z,112.50
2019-02-06T10:14:36.070Z,118.13
2019-02-06T10:15:36.041Z,118.13
2019-02-06T10:16:36.022Z,106.88
2019-02-06T10:17:36.297Z,101.25
2019-02-06T10:18:35.942Z,101.25
2019-02-06T10:19:35.911Z,112.50
2019-02-06T10:20:35.860Z,118.13
2019-02-06T10:21:35.845Z,135.00
2019-02-06T10:22:35.801Z,151.88
2019-02-06T10:23:35.776Z,168.75
2019-02-06T10:24:35.778Z,174.38
2019-02-06T10:25:35.690Z,185.63
2019-02-06T10:26:35.660Z,208.13
2019-02-06T10:27:35.681Z,219.38
2019-02-06T10:28:35.582Z,213.75
2019-02-06T10:29:35.556Z,202.50
2019-02-06T10:30:35.530Z,219.38
2019-02-06T10:31:35.497Z,247.50
2019-02-06T10:32:35.450Z,230.63
2019-02-06T10:33:35.416Z,225.00
2019-02-06T10:34:35.386Z,196.88
2019-02-06T10:35:35.347Z,174.38
2019-02-06T10:36:35.317Z,157.50
2019-02-06T10:37:35.304Z,135.00
2019-02-06T10:38:35.252Z,118.13
2019-02-06T10:39:35.218Z,118.13
2019-02-06T10:40:35.195Z,118.13
2019-02-06T10:41:35.167Z,112.50
2019-02-06T10:42:35.121Z,106.88
2019-02-06T10:43:35.932Z,106.88
2019-02-06T10:44:35.037Z,112.50
2019-02-06T10:45:35.019Z,112.50
2019-02-06T10:46:34.981Z,118.13
2019-02-06T10:47:34.956Z,129.38
2019-02-06T10:48:34.918Z,135.00
2019-02-06T10:49:34.881Z,140.63
2019-02-06T10:50:34.851Z,146.25
2019-02-06T10:51:34.813Z,157.50
2019-02-06T10:52:34.776Z,157.50
2019-02-06T10:53:34.748Z,157.50
2019-02-06T10:54:34.721Z,151.88
2019-02-06T10:55:34.679Z,123.75
2019-02-06T10:56:34.647Z,112.50
2019-02-06T10:57:34.614Z,106.88
2019-02-06T10:58:34.587Z,106.88
2019-02-06T10:59:34.538Z,101.25
2019-02-06T11:00:34.512Z,95.63
2019-02-06T11:01:34.482Z,95.63
2019-02-06T11:02:34.759Z,90.00
2019-02-06T11:03:34.402Z,90.00
2019-02-06T11:04:34.373Z,90.00
2019-02-06T11:05:34.344Z,101.25
2019-02-06T11:06:34.310Z,101.25
2019-02-06T11:07:34.263Z,106.88
2019-02-06T11:08:34.249Z,101.25
2019-02-06T11:09:45.781Z,106.88
2019-02-06T11:10:34.177Z,106.88
2019-02-06T11:11:34.143Z,106.88
2019-02-06T11:12:34.108Z,112.50
2019-02-06T11:13:34.076Z,118.13
2019-02-06T11:14:34.037Z,112.50
2019-02-06T11:15:34.011Z,112.50
2019-02-06T11:16:33.980Z,129.38
2019-02-06T11:17:33.938Z,123.75
2019-02-06T11:18:33.909Z,129.38
2019-02-06T11:19:33.889Z,129.38
2019-02-06T11:20:33.841Z,123.75
2019-02-06T11:21:33.811Z,112.50
2019-02-06T11:22:33.768Z,106.88
2019-02-06T11:23:33.739Z,123.75
2019-02-06T11:24:33.715Z,118.13
2019-02-06T11:25:33.679Z,118.13
2019-02-06T11:26:33.639Z,163.13
2019-02-06T11:27:33.611Z,157.50
2019-02-06T11:28:33.568Z,264.38
2019-02-06T11:29:33.543Z,286.88
2019-02-06T11:30:33.509Z,298.13
2019-02-06T11:31:33.475Z,303.75
2019-02-06T11:32:33.445Z,343.13
2019-02-06T11:33:33.411Z,472.50
2019-02-06T11:34:33.378Z,545.63
2019-02-06T11:35:33.348Z,500.63
2019-02-06T11:36:33.320Z,455.63
2019-02-06T11:37:33.285Z,416.25
2019-02-06T11:38:33.255Z,405.00
2019-02-06T11:39:33.216Z,450.00
2019-02-06T11:40:33.205Z,275.63
2019-02-06T11:41:33.161Z,326.25
2019-02-06T11:42:33.131Z,331.88
2019-02-06T11:43:33.098Z,286.88
2019-02-06T11:44:33.070Z,264.38
2019-02-06T11:45:33.059Z,320.63
2019-02-06T11:46:33.021Z,421.88
2019-02-06T11:47:32.975Z,388.13
2019-02-06T11:48:32.950Z,506.25
2019-02-06T11:49:32.928Z,382.50
2019-02-06T11:50:32.890Z,528.75
2019-02-06T11:51:32.861Z,540.00
2019-02-06T11:52:32.832Z,399.38
2019-02-06T11:53:32.815Z,455.63
2019-02-06T11:54:32.781Z,601.88
2019-02-06T11:55:32.773Z,635.63
2019-02-06T11:56:32.824Z,556.88
2019-02-06T11:57:32.861Z,416.25
2019-02-06T11:58:32.685Z,686.25
2019-02-06T11:59:32.640Z,669.38
2019-02-06T12:00:32.616Z,630.00
2019-02-06T12:01:32.581Z,618.75
2019-02-06T12:02:37.340Z,624.38
2019-02-06T12:03:32.527Z,618.75
2019-02-06T12:04:32.582Z,573.75
2019-02-06T12:05:32.476Z,646.88
2019-02-06T12:06:32.450Z,658.13
2019-02-06T12:07:32.422Z,680.63
2019-02-06T12:08:32.393Z,652.50
2019-02-06T12:09:32.377Z,607.50
2019-02-06T12:10:33.027Z,630.00
2019-02-06T12:11:32.320Z,618.75
2019-02-06T12:12:32.363Z,630.00
2019-02-06T12:13:32.275Z,630.00
2019-02-06T12:14:32.261Z,618.75
2019-02-06T12:15:32.220Z,590.63
2019-02-06T12:16:32.296Z,455.63
2019-02-06T12:17:32.423Z,551.25
2019-02-06T12:18:32.156Z,455.63
2019-02-06T12:19:32.143Z,556.88
2019-02-06T12:20:32.108Z,551.25
2019-02-06T12:21:32.116Z,528.75
2019-02-06T12:22:32.060Z,433.13
2019-02-06T12:23:32.655Z,562.50
2019-02-06T12:24:32.014Z,281.25
2019-02-06T12:25:34.390Z,292.50
2019-02-06T12:26:31.963Z,371.25
2019-02-06T12:27:31.943Z,225.00
2019-02-06T12:28:31.918Z,157.50
2019-02-06T12:29:31.897Z,140.63
2019-02-06T12:30:31.871Z,112.50
2019-02-06T12:31:31.863Z,106.88
2019-02-06T12:32:31.820Z,112.50
2019-02-06T12:33:31.787Z,95.63
2019-02-06T12:34:31.766Z,95.63
2019-02-06T12:35:31.743Z,90.00
2019-02-06T12:36:31.719Z,90.00
2019-02-06T12:37:31.693Z,84.38
2019-02-06T12:38:31.666Z,78.75
2019-02-06T12:39:31.630Z,78.75
2019-02-06T12:40:31.613Z,73.13
2019-02-06T12:41:31.578Z,73.13
2019-02-06T12:42:31.557Z,67.50
2019-02-06T12:43:31.518Z,67.50
2019-02-06T12:44:31.497Z,67.50
2019-02-06T12:45:31.470Z,67.50
2019-02-06T12:46:31.453Z,61.88
2019-02-06T12:47:31.420Z,61.88
2019-02-06T12:48:31.385Z,67.50
2019-02-06T12:49:31.353Z,73.13
2019-02-06T12:50:31.323Z,67.50
2019-02-06T12:51:31.302Z,67.50
2019-02-06T12:52:31.264Z,67.50
2019-02-06T12:53:31.228Z,73.13
2019-02-06T12:54:31.204Z,73.13
2019-02-06T12:55:31.183Z,67.50
2019-02-06T12:56:31.146Z,67.50
2019-02-06T12:57:36.959Z,67.50
2019-02-06T12:58:31.089Z,73.13
2019-02-06T12:59:31.060Z,73.13
2019-02-06T13:00:31.051Z,73.13
2019-02-06T13:01:30.994Z,67.50